Roscoe, Pennsylvania
Current Conditions -  °F | °C
As of 1:28 PM on Thursday 29 Jan 2015 (Local Time) from KAGC Reporting Station
Light Snow Light Snow  
Wind Chill: 26°   Ceiling: 2900
Heat Index: 34°   Visibility: 2.5mi
Dew Point: 26°   Wind: 10mph
Humidity: 73%   Direction: 170°S
Pressure: 29.84"   Gusts: NA
Location:  40.08°N, 79.87°W
Report Text: KAGC 291828Z 17009KT 2 1/2SM -SN SCT024 BKN029 OVC034 01/M03 A2984 RMK AO2 RAB13E25FZRAE13SNB25 P0002 I1000 T00111033
Loading
Personal Weather Stations






























Interactive Weather Map New forecast layout! Learn more

10-Day Weather Forecast

Advertisements
Track Severe Weather on mobile